createdAt,value
2018-12-21T00:02:25.639Z,97468.07
2018-12-21T00:04:53.037Z,97467.72
2018-12-21T00:07:20.415Z,97465.12
2018-12-21T00:09:47.774Z,97450.18
2018-12-21T00:12:15.146Z,97457.81
2018-12-21T00:14:42.554Z,97452.65
2018-12-21T00:17:09.923Z,97449.30
2018-12-21T00:19:37.304Z,97450.69
2018-12-21T00:22:04.700Z,97452.11
2018-12-21T00:24:32.150Z,97451.95
2018-12-21T00:26:59.543Z,97450.84
2018-12-21T00:29:26.912Z,97448.11
2018-12-21T00:31:59.827Z,97456.09
2018-12-21T00:34:32.974Z,97450.36
2018-12-21T00:37:05.866Z,97451.52
2018-12-21T00:39:38.906Z,97441.29
2018-12-21T00:42:08.200Z,97443.56
2018-12-21T00:44:35.903Z,97442.84
2018-12-21T00:47:05.222Z,97440.48
2018-12-21T00:49:32.602Z,97450.69
2018-12-21T00:51:59.966Z,97438.52
2018-12-21T00:54:27.365Z,97441.42
2018-12-21T00:56:54.738Z,97439.14
2018-12-21T00:59:22.110Z,97444.34
2018-12-21T01:01:49.495Z,97434.92
2018-12-21T01:04:16.892Z,97430.11
2018-12-21T01:06:44.331Z,97427.69
2018-12-21T01:09:11.734Z,97425.51
2018-12-21T01:11:39.122Z,97415.81
2018-12-21T01:14:06.546Z,97401.95
2018-12-21T01:16:33.914Z,97401.86
2018-12-21T01:19:01.274Z,97404.36
2018-12-21T01:21:29.767Z,97403.55
2018-12-21T01:23:57.134Z,97407.34
2018-12-21T01:26:24.526Z,97408.09
2018-12-21T01:28:51.917Z,97407.14
2018-12-21T01:31:19.283Z,97415.92
2018-12-21T01:33:46.828Z,97422.13
2018-12-21T01:36:14.210Z,97437.55
2018-12-21T01:38:41.585Z,97435.59
2018-12-21T01:41:08.978Z,97445.73
2018-12-21T01:43:36.342Z,97449.41
2018-12-21T01:46:03.738Z,97448.08
2018-12-21T01:48:31.210Z,97439.33
2018-12-21T01:50:58.609Z,97435.94
2018-12-21T01:53:25.974Z,97435.86
2018-12-21T01:55:53.350Z,97442.69
2018-12-21T01:58:20.730Z,97436.86
2018-12-21T02:00:48.099Z,97435.86
2018-12-21T02:03:15.461Z,97432.92
2018-12-21T02:05:42.834Z,97417.19
2018-12-21T02:08:10.204Z,97424.95
2018-12-21T02:10:37.579Z,97425.75
2018-12-21T02:13:04.993Z,97421.70
2018-12-21T02:15:32.407Z,97421.12
2018-12-21T02:17:59.769Z,97417.16
2018-12-21T02:20:27.168Z,97416.91
2018-12-21T02:22:54.530Z,97416.73
2018-12-21T02:25:21.898Z,97406.83
2018-12-21T02:27:49.284Z,97404.82
2018-12-21T02:30:16.678Z,97400.17
2018-12-21T02:32:44.075Z,97406.48
2018-12-21T02:35:11.444Z,97392.50
2018-12-21T02:37:38.900Z,97385.70
2018-12-21T02:40:07.298Z,97382.31
2018-12-21T02:42:34.664Z,97380.19
2018-12-21T02:45:02.114Z,97385.88
2018-12-21T02:47:29.489Z,97382.34
2018-12-21T02:49:56.855Z,97384.15
2018-12-21T02:52:24.246Z,97378.78
2018-12-21T02:54:51.806Z,97376.59
2018-12-21T02:57:19.170Z,97378.70
2018-12-21T02:59:46.562Z,97364.04
2018-12-21T03:02:14.026Z,97353.19
2018-12-21T03:04:41.434Z,97351.06
2018-12-21T03:07:08.797Z,97348.69
2018-12-21T03:09:36.172Z,97344.66
2018-12-21T03:12:03.616Z,97334.61
2018-12-21T03:14:31.010Z,97328.76
2018-12-21T03:16:58.390Z,97323.77
2018-12-21T03:19:25.904Z,97326.30
2018-12-21T03:21:53.353Z,97318.22
2018-12-21T03:24:20.808Z,97313.59
2018-12-21T03:26:48.265Z,97306.91
2018-12-21T03:29:15.650Z,97296.25
2018-12-21T03:31:43.026Z,97287.72
2018-12-21T03:34:10.500Z,97285.38
2018-12-21T03:36:37.980Z,97276.97
2018-12-21T03:39:07.580Z,97269.63
2018-12-21T03:41:35.799Z,97255.80
2018-12-21T03:44:03.199Z,97249.70
2018-12-21T03:46:30.644Z,97233.13
2018-12-21T03:48:58.007Z,97230.36
2018-12-21T03:51:25.403Z,97229.44
2018-12-21T03:53:52.787Z,97216.75
2018-12-21T03:56:20.135Z,97229.12
2018-12-21T03:58:47.503Z,97224.35
2018-12-21T04:01:14.882Z,97220.59
2018-12-21T04:03:42.250Z,97203.52
2018-12-21T04:06:09.732Z,97200.40
2018-12-21T04:08:37.099Z,97193.83
2018-12-21T04:11:04.470Z,97174.84
2018-12-21T04:13:31.923Z,97172.41
2018-12-21T04:15:59.379Z,97166.39
2018-12-21T04:18:26.747Z,97169.25
2018-12-21T04:20:54.121Z,97176.00
2018-12-21T04:23:21.562Z,97185.61
2018-12-21T04:25:48.930Z,97184.45
2018-12-21T04:28:16.298Z,97185.24
2018-12-21T04:30:43.671Z,97190.06
2018-12-21T04:33:11.029Z,97198.91
2018-12-21T04:35:38.451Z,97200.44
2018-12-21T04:38:05.827Z,97203.60
2018-12-21T04:40:33.198Z,97185.11
2018-12-21T04:43:00.612Z,97185.14
2018-12-21T04:45:27.982Z,97186.74
2018-12-21T04:47:55.371Z,97186.11
2018-12-21T04:50:22.744Z,97183.78
2018-12-21T04:52:50.107Z,97180.69
2018-12-21T04:55:17.477Z,97179.42
2018-12-21T04:57:44.932Z,97175.50
2018-12-21T05:00:12.402Z,97172.23
2018-12-21T05:02:39.821Z,97177.86
2018-12-21T05:05:07.202Z,97164.96
2018-12-21T05:07:34.698Z,97159.55
2018-12-21T05:10:02.088Z,97151.48
2018-12-21T05:12:29.498Z,97152.77
2018-12-21T05:14:56.881Z,97157.66
2018-12-21T05:17:24.249Z,97140.78
2018-12-21T05:19:51.630Z,97141.09
2018-12-21T05:22:19.030Z,97145.22
2018-12-21T05:24:46.398Z,97128.87
2018-12-21T05:27:13.774Z,97122.02
2018-12-21T05:29:41.142Z,97128.58
2018-12-21T05:32:08.515Z,97114.85
2018-12-21T05:34:35.926Z,97115.68
2018-12-21T05:37:03.310Z,97112.75
2018-12-21T05:39:30.682Z,97120.02
2018-12-21T05:41:58.054Z,97108.64
2018-12-21T05:44:25.426Z,97109.25
2018-12-21T05:46:52.879Z,97104.30
2018-12-21T05:49:20.274Z,97095.34
2018-12-21T05:51:47.647Z,97107.39
2018-12-21T05:54:15.016Z,97107.16
2018-12-21T05:56:42.404Z,97102.32
2018-12-21T05:59:09.843Z,97111.42
2018-12-21T06:01:37.214Z,97107.48
2018-12-21T06:04:04.610Z,97104.56
2018-12-21T06:06:32.011Z,97096.66
2018-12-21T06:08:59.451Z,97096.22
2018-12-21T06:11:26.913Z,97090.88
2018-12-21T06:13:54.284Z,97081.05
2018-12-21T06:16:21.746Z,97075.34
2018-12-21T06:18:49.111Z,97079.34
2018-12-21T06:21:16.483Z,97074.39
2018-12-21T06:23:43.851Z,97073.56
2018-12-21T06:26:11.226Z,97060.02
2018-12-21T06:28:38.601Z,97060.48
2018-12-21T06:31:05.971Z,97050.41
2018-12-21T06:33:33.334Z,97057.79
2018-12-21T06:36:00.702Z,97051.08
2018-12-21T06:38:28.070Z,97040.64
2018-12-21T06:40:55.446Z,97037.36
2018-12-21T06:43:22.814Z,97030.38
2018-12-21T06:45:50.613Z,97022.63
2018-12-21T06:48:17.986Z,97020.17
2018-12-21T06:50:45.351Z,97018.62
2018-12-21T06:53:17.970Z,97013.63
2018-12-21T06:55:42.151Z,97013.95
2018-12-21T06:58:09.527Z,97004.45
2018-12-21T07:00:36.890Z,97002.51
2018-12-21T07:03:04.272Z,97001.03
2018-12-21T07:05:31.737Z,96989.34
2018-12-21T07:07:59.135Z,96977.06
2018-12-21T07:10:26.518Z,96978.52
2018-12-21T07:12:53.910Z,96969.95
2018-12-21T07:15:21.282Z,96960.52
2018-12-21T07:17:48.650Z,96948.84
2018-12-21T07:20:16.022Z,96947.76
2018-12-21T07:22:43.390Z,96935.74
2018-12-21T07:25:10.778Z,96942.98
2018-12-21T07:27:38.158Z,96940.39
2018-12-21T07:30:07.975Z,96906.67
2018-12-21T07:32:35.407Z,96911.12
2018-12-21T07:35:02.802Z,96915.63
2018-12-21T07:37:30.191Z,96921.31
2018-12-21T07:39:57.564Z,96926.98
2018-12-21T07:42:25.011Z,96924.63
2018-12-21T07:44:52.383Z,96925.25
2018-12-21T07:47:19.834Z,96930.05
2018-12-21T07:49:47.212Z,96927.02
2018-12-21T07:52:14.582Z,96917.31
2018-12-21T07:54:42.107Z,96919.52
2018-12-21T07:57:09.474Z,96933.95
2018-12-21T07:59:36.842Z,96916.47
2018-12-21T08:02:04.235Z,96910.71
2018-12-21T08:04:31.602Z,96905.44
2018-12-21T08:06:58.995Z,96900.14
2018-12-21T08:09:26.371Z,96903.86
2018-12-21T08:11:53.741Z,96892.55
2018-12-21T08:14:21.099Z,96907.66
2018-12-21T08:16:48.466Z,96903.20
2018-12-21T08:19:15.858Z,96908.29
2018-12-21T08:21:43.262Z,96890.87
2018-12-21T08:24:10.634Z,96885.70
2018-12-21T08:26:38.004Z,96887.80
2018-12-21T08:29:05.370Z,96878.98
2018-12-21T08:31:32.730Z,96874.63
2018-12-21T08:34:00.102Z,96866.80
2018-12-21T08:36:27.466Z,96867.25
2018-12-21T08:38:54.838Z,96877.29
2018-12-21T08:41:22.206Z,96869.09
2018-12-21T08:43:49.592Z,96855.50
2018-12-21T08:46:16.974Z,96855.08
2018-12-21T08:48:44.342Z,96860.84
2018-12-21T08:51:11.702Z,96858.23
2018-12-21T08:53:39.075Z,96843.82
2018-12-21T08:56:06.462Z,96840.80
2018-12-21T08:58:33.866Z,96835.66
2018-12-21T09:01:01.258Z,96835.77
2018-12-21T09:03:28.630Z,96827.05
2018-12-21T09:05:55.996Z,96830.68
2018-12-21T09:08:23.449Z,96826.28
2018-12-21T09:10:50.814Z,96834.91
2018-12-21T09:13:18.202Z,96839.30
2018-12-21T09:15:45.603Z,96831.63
2018-12-21T09:18:12.978Z,96841.94
2018-12-21T09:20:40.342Z,96830.11
2018-12-21T09:23:07.794Z,96830.30
2018-12-21T09:25:35.158Z,96832.87
2018-12-21T09:28:02.554Z,96825.63
2018-12-21T09:30:29.941Z,96824.48
2018-12-21T09:32:57.339Z,96825.63
2018-12-21T09:35:24.730Z,96809.70
2018-12-21T09:37:52.110Z,96797.63
2018-12-21T09:40:19.496Z,96789.43
2018-12-21T09:42:46.871Z,96778.64
2018-12-21T09:45:14.254Z,96767.37
2018-12-21T09:47:41.627Z,96755.41
2018-12-21T09:50:09.045Z,96750.77
2018-12-21T09:52:36.415Z,96730.24
2018-12-21T09:55:03.925Z,96725.66
2018-12-21T09:57:31.303Z,96722.39
2018-12-21T09:59:58.666Z,96714.34
2018-12-21T10:02:26.062Z,96707.02
2018-12-21T10:04:53.425Z,96701.98
2018-12-21T10:07:27.522Z,96705.28
2018-12-21T10:09:50.135Z,96697.95
2018-12-21T10:12:17.510Z,96697.45
2018-12-21T10:14:44.874Z,96690.80
2018-12-21T10:17:12.247Z,96685.17
2018-12-21T10:19:39.614Z,96684.87
2018-12-21T10:22:06.993Z,96674.23
2018-12-21T10:24:34.370Z,96662.11
2018-12-21T10:27:01.735Z,96669.72
2018-12-21T10:29:29.106Z,96644.24
2018-12-21T10:31:56.482Z,96633.74
2018-12-21T10:34:23.883Z,96638.15
2018-12-21T10:36:51.258Z,96635.30
2018-12-21T10:39:18.634Z,96634.48
2018-12-21T10:41:46.054Z,96635.58
2018-12-21T10:44:13.459Z,96628.97
2018-12-21T10:46:40.830Z,96626.09
2018-12-21T10:49:08.206Z,96625.43
2018-12-21T10:51:35.609Z,96627.74
2018-12-21T10:54:03.006Z,96636.27
2018-12-21T10:56:30.438Z,96621.05
2018-12-21T10:58:57.822Z,96628.62
2018-12-21T11:01:25.195Z,96619.19
2018-12-21T11:03:52.578Z,96621.06
2018-12-21T11:06:20.783Z,96616.47
2018-12-21T11:08:48.160Z,96612.45
2018-12-21T11:11:15.531Z,96603.32
2018-12-21T11:13:42.912Z,96593.37
2018-12-21T11:16:10.286Z,96602.07
2018-12-21T11:18:37.670Z,96594.95
2018-12-21T11:21:05.068Z,96586.91
2018-12-21T11:23:32.446Z,96598.83
2018-12-21T11:26:00.869Z,96588.27
2018-12-21T11:28:28.268Z,96588.13
2018-12-21T11:30:55.627Z,96586.18
2018-12-21T11:33:23.014Z,96589.83
2018-12-21T11:35:50.394Z,96590.56
2018-12-21T11:38:17.777Z,96591.18
2018-12-21T11:40:45.159Z,96586.45
2018-12-21T11:43:12.534Z,96594.59
2018-12-21T11:45:39.913Z,96596.22
2018-12-21T11:48:07.306Z,96611.00
2018-12-21T11:50:34.679Z,96594.56
2018-12-21T11:53:02.092Z,96587.80
2018-12-21T11:55:29.462Z,96589.81
2018-12-21T11:57:56.833Z,96580.77
2018-12-21T12:00:24.202Z,96586.31
2018-12-21T12:02:51.659Z,96576.80
2018-12-21T12:05:19.038Z,96582.32
2018-12-21T12:07:46.406Z,96574.08
2018-12-21T12:10:13.783Z,96566.22
2018-12-21T12:12:41.165Z,96574.89
2018-12-21T12:15:08.630Z,96588.09
2018-12-21T12:17:36.015Z,96586.92
2018-12-21T12:20:04.843Z,96590.25
2018-12-21T12:22:32.214Z,96579.28
2018-12-21T12:24:59.632Z,96580.29
2018-12-21T12:27:27.002Z,96588.31
2018-12-21T12:29:54.403Z,96565.35
2018-12-21T12:32:21.797Z,96576.72
2018-12-21T12:34:49.267Z,96564.59
2018-12-21T12:37:16.637Z,96565.09
2018-12-21T12:39:44.006Z,96563.87
2018-12-21T12:42:18.215Z,96564.83
2018-12-21T12:44:45.590Z,96569.51
2018-12-21T12:47:12.966Z,96565.70
2018-12-21T12:49:40.344Z,96563.66
2018-12-21T12:52:07.742Z,96554.84
2018-12-21T12:54:35.115Z,96564.99
2018-12-21T12:57:02.486Z,96563.56
2018-12-21T12:59:29.946Z,96573.55
2018-12-21T13:01:58.467Z,96558.95
2018-12-21T13:04:26.170Z,96565.65
2018-12-21T13:06:53.574Z,96568.30
2018-12-21T13:09:21.056Z,96574.14
2018-12-21T13:11:48.526Z,96568.08
2018-12-21T13:14:16.670Z,96563.77
2018-12-21T13:16:44.282Z,96568.80
2018-12-21T13:19:11.667Z,96574.20
2018-12-21T13:21:39.126Z,96583.97
2018-12-21T13:24:06.535Z,96594.59
2018-12-21T13:26:33.929Z,96586.44
2018-12-21T13:29:01.316Z,96588.97
2018-12-21T13:31:28.687Z,96581.08
2018-12-21T13:33:56.067Z,96587.26
2018-12-21T13:36:23.439Z,96583.66
2018-12-21T13:38:50.838Z,96585.64
2018-12-21T13:41:18.214Z,96598.05
2018-12-21T13:43:45.596Z,96585.52
2018-12-21T13:46:12.975Z,96597.98
2018-12-21T13:48:40.363Z,96594.93
2018-12-21T13:51:07.762Z,96600.48
2018-12-21T13:53:35.130Z,96598.05
2018-12-21T13:56:02.510Z,96595.06
2018-12-21T13:58:29.883Z,96598.20
2018-12-21T14:00:57.537Z,96591.16
2018-12-21T14:03:24.955Z,96609.23
2018-12-21T14:05:52.326Z,96620.33
2018-12-21T14:08:19.698Z,96617.99
2018-12-21T14:10:47.103Z,96629.85
2018-12-21T14:13:14.503Z,96627.34
2018-12-21T14:15:41.898Z,96623.41
2018-12-21T14:18:09.274Z,96623.21
2018-12-21T14:20:36.660Z,96617.64
2018-12-21T14:23:04.037Z,96616.87
2018-12-21T14:25:31.406Z,96626.63
2018-12-21T14:27:58.789Z,96628.02
2018-12-21T14:30:26.187Z,96623.29
2018-12-21T14:32:53.566Z,96619.56
2018-12-21T14:35:20.950Z,96623.63
2018-12-21T14:37:48.329Z,96624.49
2018-12-21T14:40:15.710Z,96627.23
2018-12-21T14:42:43.166Z,96631.77
2018-12-21T14:45:10.565Z,96629.07
2018-12-21T14:47:37.958Z,96633.39
2018-12-21T14:50:07.005Z,96641.34
2018-12-21T14:52:34.380Z,96645.14
2018-12-21T14:55:01.750Z,96658.84
2018-12-21T14:57:29.157Z,96656.53
2018-12-21T14:59:56.602Z,96666.08
2018-12-21T15:02:23.978Z,96670.53
2018-12-21T15:04:51.376Z,96677.33
2018-12-21T15:07:18.771Z,96679.76
2018-12-21T15:09:46.162Z,96678.22
2018-12-21T15:12:13.534Z,96681.70
2018-12-21T15:14:40.942Z,96680.88
2018-12-21T15:17:08.332Z,96673.80
2018-12-21T15:19:35.708Z,96673.90
2018-12-21T15:22:03.099Z,96681.42
2018-12-21T15:24:30.478Z,96698.27
2018-12-21T15:26:57.918Z,96695.28
2018-12-21T15:29:25.306Z,96690.81
2018-12-21T15:31:52.673Z,96688.27
2018-12-21T15:34:20.050Z,96693.84
2018-12-21T15:36:47.426Z,96686.78
2018-12-21T15:39:14.798Z,96691.07
2018-12-21T15:41:42.183Z,96697.09
2018-12-21T15:44:09.580Z,96700.86
2018-12-21T15:46:36.950Z,96703.39
2018-12-21T15:49:04.354Z,96695.34
2018-12-21T15:51:31.746Z,96695.13
2018-12-21T15:53:59.117Z,96698.16
2018-12-21T15:56:26.490Z,96686.27
2018-12-21T15:58:53.872Z,96697.39
2018-12-21T16:01:21.377Z,96700.18
2018-12-21T16:03:48.877Z,96700.37
2018-12-21T16:06:16.294Z,96700.52
2018-12-21T16:08:43.721Z,96692.13
2018-12-21T16:11:11.117Z,96691.69
2018-12-21T16:13:38.494Z,96702.89
2018-12-21T16:16:05.914Z,96716.53
2018-12-21T16:18:33.311Z,96705.20
2018-12-21T16:21:00.682Z,96708.08
2018-12-21T16:23:28.082Z,96704.72
2018-12-21T16:26:03.296Z,96715.66
2018-12-21T16:28:25.309Z,96722.77
2018-12-21T16:30:52.682Z,96725.14
2018-12-21T16:33:20.059Z,96719.88
2018-12-21T16:35:47.515Z,96717.89
2018-12-21T16:38:16.069Z,96734.77
2018-12-21T16:40:43.570Z,96729.58
2018-12-21T16:43:10.997Z,96718.09
2018-12-21T16:45:38.419Z,96722.11
2018-12-21T16:48:05.792Z,96727.75
2018-12-21T16:50:33.177Z,96734.15
2018-12-21T16:53:00.542Z,96743.33
2018-12-21T16:55:27.934Z,96749.45
2018-12-21T16:57:55.318Z,96755.12
2018-12-21T17:00:22.733Z,96748.86
2018-12-21T17:02:50.098Z,96756.70
2018-12-21T17:05:17.503Z,96760.62
2018-12-21T17:07:44.878Z,96769.63
2018-12-21T17:10:12.306Z,96762.67
2018-12-21T17:12:39.679Z,96760.47
2018-12-21T17:15:09.648Z,96758.73
2018-12-21T17:17:37.104Z,96760.03
2018-12-21T17:20:06.649Z,96752.33
2018-12-21T17:22:34.102Z,96760.58
2018-12-21T17:25:01.488Z,96763.09
2018-12-21T17:27:28.878Z,96765.36
2018-12-21T17:29:56.279Z,96771.55
2018-12-21T17:32:23.675Z,96769.04
2018-12-21T17:34:51.046Z,96784.75
2018-12-21T17:37:18.419Z,96785.86
2018-12-21T17:39:45.800Z,96782.38
2018-12-21T17:42:13.186Z,96800.87
2018-12-21T17:44:40.574Z,96806.11
2018-12-21T17:47:07.955Z,96789.67
2018-12-21T17:49:35.322Z,96796.41
2018-12-21T17:52:02.725Z,96797.20
2018-12-21T17:54:30.114Z,96810.89
2018-12-21T17:56:57.482Z,96824.06
2018-12-21T17:59:24.938Z,96812.16
2018-12-21T18:01:52.322Z,96817.08
2018-12-21T18:04:19.738Z,96832.80
2018-12-21T18:06:47.139Z,96832.21
2018-12-21T18:09:14.517Z,96846.59
2018-12-21T18:11:41.889Z,96837.68
2018-12-21T18:14:09.370Z,96849.83
2018-12-21T18:16:36.751Z,96845.08
2018-12-21T18:19:04.353Z,96834.07
2018-12-21T18:21:35.063Z,96849.23
2018-12-21T18:24:02.439Z,96850.34
2018-12-21T18:26:38.432Z,96855.94
2018-12-21T18:28:59.170Z,96862.58
2018-12-21T18:31:26.866Z,96857.25
2018-12-21T18:33:54.379Z,96861.64
2018-12-21T18:36:21.860Z,96847.41
2018-12-21T18:38:49.266Z,96845.53
2018-12-21T18:41:16.663Z,96844.71
2018-12-21T18:43:44.058Z,96848.58
2018-12-21T18:46:11.458Z,96849.05
2018-12-21T18:48:38.831Z,96836.44
2018-12-21T18:51:06.251Z,96831.66
2018-12-21T18:53:33.639Z,96841.12
2018-12-21T18:56:01.115Z,96825.57
2018-12-21T18:58:28.483Z,96825.81
2018-12-21T19:00:55.858Z,96839.28
2018-12-21T19:03:23.234Z,96840.80
2018-12-21T19:05:50.620Z,96846.20
2018-12-21T19:08:18.158Z,96830.38
2018-12-21T19:10:45.555Z,96841.41
2018-12-21T19:13:12.930Z,96836.31
2018-12-21T19:15:40.331Z,96834.33
2018-12-21T19:18:07.736Z,96839.38
2018-12-21T19:20:35.134Z,96826.77
2018-12-21T19:23:02.506Z,96840.13
2018-12-21T19:25:29.887Z,96843.23
2018-12-21T19:27:57.286Z,96842.95
2018-12-21T19:30:25.272Z,96845.16
2018-12-21T19:32:52.799Z,96847.44
2018-12-21T19:35:27.354Z,96848.81
2018-12-21T19:37:49.526Z,96847.20
2018-12-21T19:40:16.898Z,96845.81
2018-12-21T19:42:44.274Z,96844.94
2018-12-21T19:45:11.752Z,96845.22
2018-12-21T19:47:39.148Z,96851.46
2018-12-21T19:50:07.854Z,96854.24
2018-12-21T19:52:35.231Z,96860.98
2018-12-21T19:55:08.191Z,96861.42
2018-12-21T19:57:35.590Z,96854.56
2018-12-21T20:00:03.582Z,96865.86
2018-12-21T20:02:30.969Z,96865.25
2018-12-21T20:04:58.328Z,96862.88
2018-12-21T20:07:25.702Z,96861.36
2018-12-21T20:09:53.191Z,96862.98
2018-12-21T20:12:20.587Z,96864.41
2018-12-21T20:14:47.966Z,96856.83
2018-12-21T20:17:15.338Z,96852.68
2018-12-21T20:19:42.772Z,96848.70
2018-12-21T20:22:10.138Z,96844.94
2018-12-21T20:24:37.537Z,96841.62
2018-12-21T20:27:13.048Z,96844.23
2018-12-21T20:29:34.802Z,96844.94
2018-12-21T20:32:02.495Z,96850.03
2018-12-21T20:34:30.207Z,96855.17
2018-12-21T20:36:57.606Z,96837.70
2018-12-21T20:39:26.617Z,96844.23
2018-12-21T20:41:54.295Z,96849.31
2018-12-21T20:44:21.673Z,96851.53
2018-12-21T20:46:49.062Z,96853.70
2018-12-21T20:49:16.438Z,96848.53
2018-12-21T20:51:43.834Z,96859.42
2018-12-21T20:54:11.230Z,96859.42
2018-12-21T20:56:38.623Z,96859.59
2018-12-21T20:59:06.010Z,96864.36
2018-12-21T21:01:33.399Z,96866.23
2018-12-21T21:04:00.775Z,96865.12
2018-12-21T21:06:28.198Z,96861.02
2018-12-21T21:08:55.570Z,96854.78
2018-12-21T21:11:24.964Z,96852.00
2018-12-21T21:13:52.321Z,96854.78
2018-12-21T21:16:19.698Z,96849.91
2018-12-21T21:18:47.099Z,96858.25
2018-12-21T21:21:14.466Z,96861.14
2018-12-21T21:23:41.843Z,96854.00
2018-12-21T21:26:09.214Z,96870.30
2018-12-21T21:28:36.594Z,96865.17
2018-12-21T21:31:03.991Z,96877.26
2018-12-21T21:33:31.478Z,96877.34
2018-12-21T21:35:58.850Z,96873.06
2018-12-21T21:38:26.223Z,96894.89
2018-12-21T21:40:53.617Z,96895.38
2018-12-21T21:43:20.991Z,96896.98
2018-12-21T21:45:48.399Z,96895.12
2018-12-21T21:48:15.779Z,96902.88
2018-12-21T21:50:43.179Z,96898.20
2018-12-21T21:53:10.594Z,96903.02
2018-12-21T21:55:37.990Z,96903.61
2018-12-21T21:58:05.433Z,96901.41
2018-12-21T22:00:32.842Z,96901.16
2018-12-21T22:03:00.218Z,96904.94
2018-12-21T22:05:27.650Z,96910.31
2018-12-21T22:07:55.027Z,96911.58
2018-12-21T22:10:22.397Z,96906.84
2018-12-21T22:12:49.810Z,96919.05
2018-12-21T22:15:17.198Z,96931.06
2018-12-21T22:17:44.579Z,96942.47
2018-12-21T22:20:11.990Z,96941.61
2018-12-21T22:22:39.391Z,96936.97
2018-12-21T22:25:06.775Z,96930.17
2018-12-21T22:27:34.175Z,96931.73
2018-12-21T22:30:01.566Z,96927.69
2018-12-21T22:32:28.942Z,96925.53
2018-12-21T22:34:56.318Z,96923.11
2018-12-21T22:37:23.714Z,96927.21
2018-12-21T22:39:51.082Z,96926.07
2018-12-21T22:42:18.519Z,96931.97
2018-12-21T22:44:45.898Z,96934.45
2018-12-21T22:47:13.271Z,96931.69
2018-12-21T22:49:40.658Z,96923.78
2018-12-21T22:52:08.055Z,96932.45
2018-12-21T22:54:35.439Z,96938.30
2018-12-21T22:57:02.934Z,96935.67
2018-12-21T22:59:30.316Z,96937.22
2018-12-21T23:01:57.703Z,96933.09
2018-12-21T23:04:25.099Z,96936.73
2018-12-21T23:06:52.466Z,96935.63
2018-12-21T23:09:19.866Z,96939.16
2018-12-21T23:11:47.233Z,96943.70
2018-12-21T23:14:14.610Z,96936.11
2018-12-21T23:16:42.002Z,96935.61
2018-12-21T23:19:09.382Z,96936.56
2018-12-21T23:21:36.754Z,96936.87
2018-12-21T23:24:04.168Z,96931.56
2018-12-21T23:26:31.535Z,96937.89
2018-12-21T23:28:58.914Z,96936.15
2018-12-21T23:31:26.299Z,96938.11
2018-12-21T23:33:53.676Z,96937.22
2018-12-21T23:36:21.046Z,96942.69
2018-12-21T23:38:48.535Z,96942.41
2018-12-21T23:41:15.910Z,96939.86
2018-12-21T23:43:43.498Z,96939.77
2018-12-21T23:46:11.062Z,96929.75
2018-12-21T23:48:38.518Z,96930.74
2018-12-21T23:51:05.942Z,96932.62
2018-12-21T23:53:33.380Z,96929.63
2018-12-21T23:56:00.750Z,96929.19
2018-12-21T23:58:28.122Z,96934.66
